createdAt,value
2023-04-09T00:02:43.748Z,6.20
2023-04-09T00:07:45.550Z,6.10
2023-04-09T00:12:48.555Z,6.10
2023-04-09T00:17:50.292Z,6.00
2023-04-09T00:22:52.070Z,6.00
2023-04-09T00:27:55.288Z,6.00
2023-04-09T00:32:57.506Z,6.00
2023-04-09T00:37:59.269Z,6.00
2023-04-09T00:43:02.465Z,5.80
2023-04-09T00:48:04.485Z,5.60
2023-04-09T00:53:06.237Z,5.30
2023-04-09T00:58:09.345Z,5.10
2023-04-09T01:03:11.519Z,4.90
2023-04-09T01:08:24.841Z,4.80
2023-04-09T01:13:34.078Z,4.60
2023-04-09T01:18:39.486Z,4.50
2023-04-09T01:23:47.416Z,4.40
2023-04-09T01:28:54.683Z,4.50
2023-04-09T01:33:57.340Z,4.50
2023-04-09T01:39:00.974Z,4.40
2023-04-09T01:44:05.754Z,4.20
2023-04-09T01:49:09.230Z,3.80
2023-04-09T01:54:10.925Z,3.50
2023-04-09T01:59:14.360Z,3.70
2023-04-09T02:04:22.765Z,3.40
2023-04-09T02:09:27.337Z,2.90
2023-04-09T02:14:32.312Z,2.40
2023-04-09T02:19:39.321Z,2.20
2023-04-09T02:24:41.160Z,2.00
2023-04-09T02:29:44.111Z,2.00
2023-04-09T02:34:45.775Z,2.00
2023-04-09T02:39:47.462Z,1.90
2023-04-09T02:44:50.472Z,1.80
2023-04-09T02:49:52.103Z,1.80
2023-04-09T02:54:53.729Z,1.60
2023-04-09T02:59:56.715Z,1.40
2023-04-09T03:04:58.412Z,1.20
2023-04-09T03:10:00.283Z,1.20
2023-04-09T03:15:03.731Z,1.30
2023-04-09T03:20:06.623Z,1.10
2023-04-09T03:25:09.369Z,1.00
2023-04-09T03:30:12.796Z,0.90
2023-04-09T03:35:14.414Z,0.90
2023-04-09T03:40:16.263Z,0.90
2023-04-09T03:45:19.396Z,0.80
2023-04-09T03:50:21.037Z,0.80
2023-04-09T03:55:22.941Z,0.90
2023-04-09T04:00:26.034Z,0.90
2023-04-09T04:05:27.754Z,0.50
2023-04-09T04:10:29.411Z,0.40
2023-04-09T04:15:32.403Z,0.30
2023-04-09T04:20:34.103Z,0.30
2023-04-09T04:25:35.802Z,0.30
2023-04-09T04:30:41.303Z,0.30
2023-04-09T04:35:42.983Z,0.10
2023-04-09T04:40:44.625Z,0.00
2023-04-09T04:45:47.725Z,-0.10
2023-04-09T04:50:55.340Z,0.20
2023-04-09T04:55:57.116Z,0.20
2023-04-09T05:01:00.166Z,0.10
2023-04-09T05:06:01.918Z,-0.30
2023-04-09T05:11:03.605Z,-0.30
2023-04-09T05:16:07.262Z,-0.30
2023-04-09T05:21:08.875Z,-0.30
2023-04-09T05:26:10.525Z,-0.10
2023-04-09T05:31:13.796Z,0.10
2023-04-09T05:36:16.824Z,0.30
2023-04-09T05:41:18.496Z,0.60
2023-04-09T05:46:21.545Z,0.80
2023-04-09T05:51:23.302Z,1.00
2023-04-09T05:56:24.973Z,1.30
2023-04-09T06:01:28.167Z,1.60
2023-04-09T06:06:29.871Z,1.80
2023-04-09T06:11:34.739Z,2.10
2023-04-09T06:16:38.003Z,2.60
2023-04-09T06:21:49.885Z,2.90
2023-04-09T06:26:51.666Z,3.30
2023-04-09T06:31:54.948Z,3.70
2023-04-09T06:36:56.684Z,3.90
2023-04-09T06:41:58.593Z,4.30
2023-04-09T06:47:01.721Z,4.70
2023-04-09T06:52:03.821Z,5.10
2023-04-09T06:57:06.550Z,5.40
2023-04-09T07:02:09.920Z,5.50
2023-04-09T07:07:11.682Z,5.70
2023-04-09T07:12:13.393Z,5.90
2023-04-09T07:17:16.373Z,6.20
2023-04-09T07:22:18.346Z,6.40
2023-04-09T07:27:19.998Z,6.60
2023-04-09T07:32:23.302Z,6.80
2023-04-09T07:37:25.283Z,7.00
2023-04-09T07:42:26.917Z,7.10
2023-04-09T07:47:29.873Z,7.30
2023-04-09T07:52:31.508Z,7.40
2023-04-09T07:57:33.186Z,7.60
2023-04-09T08:02:36.300Z,7.80
2023-04-09T08:07:37.985Z,8.40
2023-04-09T08:12:39.641Z,8.90
2023-04-09T08:17:42.645Z,9.00
2023-04-09T08:22:44.341Z,9.10
2023-04-09T08:27:46.049Z,9.50
2023-04-09T08:32:49.119Z,9.90
2023-04-09T08:37:50.807Z,10.20
2023-04-09T08:42:54.904Z,10.80
2023-04-09T08:47:58.089Z,11.00
2023-04-09T08:53:03.148Z,10.90
2023-04-09T08:58:05.249Z,11.30
2023-04-09T09:03:10.811Z,11.20
2023-04-09T09:08:14.328Z,11.70
2023-04-09T09:13:21.764Z,12.00
2023-04-09T09:18:39.279Z,11.20
2023-04-09T09:23:40.994Z,11.60
2023-04-09T09:28:43.148Z,12.30
2023-04-09T09:33:46.533Z,12.70
2023-04-09T09:38:53.281Z,12.80
2023-04-09T09:43:55.332Z,13.30
2023-04-09T09:48:58.293Z,14.50
2023-04-09T09:54:01.077Z,13.30
2023-04-09T09:59:07.894Z,12.60
2023-04-09T10:04:14.654Z,12.20
2023-04-09T10:09:16.718Z,13.60
2023-04-09T10:14:19.258Z,14.40
2023-04-09T10:19:22.517Z,15.40
2023-04-09T10:24:25.092Z,16.70
2023-04-09T10:29:28.488Z,17.10
2023-04-09T10:34:35.463Z,17.10
2023-04-09T10:39:40.177Z,16.10
2023-04-09T10:44:42.120Z,15.50
2023-04-09T10:49:45.106Z,15.80
2023-04-09T10:54:46.908Z,15.30
2023-04-09T10:59:50.681Z,13.80
2023-04-09T11:05:05.267Z,13.00
2023-04-09T11:10:08.320Z,12.60
2023-04-09T11:15:16.091Z,12.80
2023-04-09T11:20:21.538Z,13.60
2023-04-09T11:25:25.628Z,14.50
2023-04-09T11:30:27.443Z,14.70
2023-04-09T11:35:30.537Z,14.50
2023-04-09T11:40:32.389Z,13.70
2023-04-09T11:45:34.628Z,14.10
2023-04-09T11:50:38.070Z,14.30
2023-04-09T11:55:40.175Z,14.20
2023-04-09T12:00:41.987Z,14.70
2023-04-09T12:05:50.669Z,14.70
2023-04-09T12:10:53.848Z,14.50
2023-04-09T12:15:56.992Z,13.90
2023-04-09T12:21:01.632Z,14.00
2023-04-09T12:26:03.459Z,14.30
2023-04-09T12:31:09.089Z,14.00
2023-04-09T12:36:12.309Z,14.60
2023-04-09T12:41:14.509Z,15.00
2023-04-09T12:46:16.173Z,15.20
2023-04-09T12:51:19.394Z,14.80
2023-04-09T12:56:21.078Z,14.80
2023-04-09T13:01:22.891Z,14.40
2023-04-09T13:06:25.984Z,14.50
2023-04-09T13:11:27.708Z,14.60
2023-04-09T13:16:29.452Z,15.50
2023-04-09T13:21:36.363Z,16.20
2023-04-09T13:26:38.107Z,16.20
2023-04-09T13:31:39.791Z,15.60
2023-04-09T13:36:42.973Z,15.70
2023-04-09T13:41:44.865Z,15.40
2023-04-09T13:46:46.787Z,15.20
2023-04-09T13:51:50.429Z,16.20
2023-04-09T13:56:52.213Z,16.20
2023-04-09T14:01:54.040Z,15.40
2023-04-09T14:06:57.224Z,15.20
2023-04-09T14:11:58.899Z,15.20
2023-04-09T14:17:00.565Z,14.90
2023-04-09T14:22:03.604Z,14.60
2023-04-09T14:27:05.838Z,14.50
2023-04-09T14:32:07.573Z,14.80
2023-04-09T14:37:10.648Z,15.20
2023-04-09T14:42:12.327Z,15.30
2023-04-09T14:47:13.996Z,15.60
2023-04-09T14:52:17.097Z,16.00
2023-04-09T14:57:18.815Z,16.70
2023-04-09T15:02:20.717Z,17.20
2023-04-09T15:07:25.147Z,17.50
2023-04-09T15:12:27.849Z,17.70
2023-04-09T15:17:29.659Z,17.30
2023-04-09T15:22:32.678Z,16.10
2023-04-09T15:27:34.383Z,15.20
2023-04-09T15:32:36.042Z,14.90
2023-04-09T15:37:39.110Z,14.80
2023-04-09T15:42:40.727Z,14.60
2023-04-09T15:47:43.488Z,14.90
2023-04-09T15:52:46.572Z,15.00
2023-04-09T15:57:50.112Z,15.10
2023-04-09T16:02:51.836Z,15.50
2023-04-09T16:07:55.989Z,15.70
2023-04-09T16:12:59.338Z,16.10
2023-04-09T16:18:00.978Z,16.40
2023-04-09T16:28:21.278Z,16.30
2023-04-09T16:33:22.958Z,16.50
2023-04-09T16:38:25.976Z,16.50
2023-04-09T16:43:27.629Z,15.90
2023-04-09T16:48:29.273Z,15.20
2023-04-09T16:53:32.439Z,15.00
2023-04-09T16:58:34.087Z,14.90
2023-04-09T17:03:36.059Z,14.70
2023-04-09T17:08:39.230Z,14.50
2023-04-09T17:13:41.309Z,14.20
2023-04-09T17:18:42.982Z,14.00
2023-04-09T17:23:46.057Z,13.80
2023-04-09T17:28:47.786Z,13.60
2023-04-09T17:33:49.794Z,13.40
2023-04-09T17:38:53.150Z,13.20
2023-04-09T17:43:55.111Z,13.00
2023-04-09T17:48:56.790Z,12.70
2023-04-09T17:53:59.828Z,12.70
2023-04-09T17:59:01.551Z,12.70
2023-04-09T18:04:03.439Z,12.40
2023-04-09T18:09:06.789Z,12.00
2023-04-09T18:14:08.657Z,11.40
2023-04-09T18:19:10.372Z,11.10
2023-04-09T18:24:13.378Z,11.10
2023-04-09T18:29:15.051Z,10.80
2023-04-09T18:34:16.678Z,10.20
2023-04-09T18:39:20.132Z,9.70
2023-04-09T18:44:21.818Z,9.00
2023-04-09T18:49:23.538Z,8.50
2023-04-09T18:54:26.531Z,8.20
2023-04-09T18:59:28.201Z,7.80
2023-04-09T19:04:29.956Z,7.60
2023-04-09T19:09:33.244Z,7.50
2023-04-09T19:14:34.934Z,8.20
2023-04-09T19:19:36.534Z,8.90
2023-04-09T19:24:39.523Z,9.20
2023-04-09T19:29:41.156Z,9.20
2023-04-09T19:34:42.807Z,9.00
2023-04-09T19:39:45.934Z,8.60
2023-04-09T19:44:47.701Z,7.90
2023-04-09T19:49:49.326Z,7.70
2023-04-09T19:54:55.318Z,8.10
2023-04-09T19:59:57.061Z,8.20
2023-04-09T20:04:58.729Z,7.90
2023-04-09T20:10:02.026Z,7.90
2023-04-09T20:15:04.144Z,8.00
2023-04-09T20:20:06.858Z,8.20
2023-04-09T20:25:10.882Z,8.30
2023-04-09T20:30:23.640Z,8.30
2023-04-09T20:35:25.323Z,8.60
2023-04-09T20:40:28.427Z,8.50
2023-04-09T20:45:30.064Z,8.20
2023-04-09T20:50:31.837Z,7.60
2023-04-09T20:55:35.427Z,6.90
2023-04-09T21:00:37.050Z,6.40
2023-04-09T21:05:38.741Z,6.10
2023-04-09T21:10:41.886Z,5.60
2023-04-09T21:15:43.518Z,5.30
2023-04-09T21:20:46.104Z,5.00
2023-04-09T21:25:49.089Z,4.90
2023-04-09T21:30:50.776Z,4.70
2023-04-09T21:35:52.870Z,5.00
2023-04-09T21:40:55.934Z,5.10
2023-04-09T21:45:57.717Z,5.50
2023-04-09T21:50:59.428Z,5.90
2023-04-09T21:56:04.691Z,6.10
2023-04-09T22:01:13.014Z,5.90
2023-04-09T22:06:20.609Z,5.90
2023-04-09T22:11:25.893Z,5.90
2023-04-09T22:16:27.623Z,5.70
2023-04-09T22:21:29.459Z,5.20
2023-04-09T22:26:33.933Z,4.80
2023-04-09T22:31:35.657Z,4.60
2023-04-09T22:36:37.368Z,4.40
2023-04-09T22:41:40.425Z,4.10
2023-04-09T22:46:42.168Z,4.00
2023-04-09T22:51:43.902Z,4.00
2023-04-09T22:56:46.927Z,4.10
2023-04-09T23:01:48.644Z,4.10
2023-04-09T23:06:50.318Z,3.90
2023-04-09T23:11:53.441Z,3.70
2023-04-09T23:16:55.149Z,3.50
2023-04-09T23:21:56.831Z,3.40
2023-04-09T23:27:00.050Z,3.20
2023-04-09T23:32:01.766Z,3.20
2023-04-09T23:37:03.444Z,3.10
2023-04-09T23:42:06.507Z,3.10
2023-04-09T23:47:08.214Z,3.00
2023-04-09T23:52:09.903Z,2.70
2023-04-09T23:57:12.948Z,2.40
